Time;durP1;ratioP1;P1;durP2;ratioP2;P2;SDS_P1;SDS_P2;PMS_P1;PMS_P2;Temp;Humidity;BMP_temperature;BMP_pressure;BME280_temperature;BME280_humidity;BME280_pressure;Samples;Min_cycle;Max_cycle;Signal;HPM_P1;HPM_P2
2022/12/09 00:02:48;;;;;;;;;38.25;32.00;;;;;12.62;91.44;101158.06;146605;628;46020;-78
2022/12/09 00:05:56;;;;;;;;;46.50;37.50;;;;;12.62;91.47;101164.12;146603;564;46016;-78
2022/12/09 00:09:03;;;;;;;;;38.25;34.00;;;;;12.61;91.44;101167.53;146606;592;46010;-78
2022/12/09 00:12:04;;;;;;;;;45.00;35.75;;;;;12.62;91.67;101165.84;146602;563;46916;-78
2022/12/09 00:15:17;;;;;;;;;44.75;33.75;;;;;12.63;91.24;101170.22;146604;608;46020;-72
2022/12/09 00:18:16;;;;;;;;;40.50;31.75;;;;;12.62;91.71;101178.88;146604;599;46014;-75
2022/12/09 00:21:37;;;;;;;;;45.25;35.25;;;;;12.61;91.31;101184.84;146604;640;46020;-75
2022/12/09 00:24:38;;;;;;;;;48.50;37.75;;;;;12.61;91.68;101180.53;146603;705;46016;-77
2022/12/09 00:27:37;;;;;;;;;43.75;35.75;;;;;12.66;91.81;101189.47;146605;563;46020;-77
2022/12/09 00:30:45;;;;;;;;;39.25;34.25;;;;;12.68;91.69;101198.28;146602;583;46916;-79
2022/12/09 00:33:46;;;;;;;;;40.00;32.00;;;;;12.69;91.40;101199.16;146604;598;46020;-78
2022/12/09 00:36:39;;;;;;;;;40.50;31.50;;;;;12.65;91.18;101197.22;146601;570;46017;-78
2022/12/09 00:39:46;;;;;;;;;35.50;30.50;;;;;12.63;91.01;101204.94;146604;582;46020;-79
2022/12/09 00:42:42;;;;;;;;;38.00;33.50;;;;;12.62;91.60;101194.47;146603;612;46016;-80
2022/12/09 00:45:34;;;;;;;;;36.25;29.75;;;;;12.58;91.24;101187.31;146604;601;46021;-80
2022/12/09 00:48:41;;;;;;;;;32.00;28.00;;;;;9.53;90.68;100667.84;146605;618;46016;-81
2022/12/09 00:51:37;;;;;;;;;27.25;24.25;;;;;12.49;91.12;101190.31;146603;597;46011;-80
2022/12/09 00:54:32;;;;;;;;;32.75;28.00;;;;;12.48;91.24;101197.25;146604;670;46016;-80
2022/12/09 00:57:24;;;;;;;;;29.50;26.50;;;;;12.46;90.93;101182.37;146605;628;46020;-78
2022/12/09 01:00:27;;;;;;;;;28.00;23.25;;;;;9.55;90.89;100681.78;146607;590;45020;-81
2022/12/09 01:03:37;;;;;;;;;26.75;25.25;;;;;12.41;91.02;101176.94;146609;571;46020;-81
2022/12/09 01:06:35;;;;;;;;;25.00;23.25;;;;;12.45;90.95;101189.28;146604;598;46012;-73
2022/12/09 01:09:34;;;;;;;;;23.50;20.75;;;;;12.45;91.46;101186.69;146606;599;46010;-74
2022/12/09 01:12:28;;;;;;;;;22.00;18.50;;;;;12.42;91.04;101175.22;146609;577;46012;-73
2022/12/09 01:15:30;;;;;;;;;23.75;21.50;;;;;12.39;90.84;101170.75;146612;564;47021;-75
2022/12/09 01:18:27;;;;;;;;;21.50;21.00;;;;;12.36;90.94;101157.59;146605;574;47915;-73
2022/12/09 01:21:24;;;;;;;;;19.00;17.50;;;;;12.33;91.24;101157.44;146614;577;45021;-78
2022/12/09 01:24:18;;;;;;;;;19.75;16.50;;;;;12.33;91.83;101154.84;146607;570;46016;-77
2022/12/09 01:27:10;;;;;;;;;12.75;12.50;;;;;12.33;92.01;101149.66;146612;635;46020;-77
2022/12/09 01:30:07;;;;;;;;;17.75;15.50;;;;;12.34;92.11;101147.97;146608;669;46017;-77
2022/12/09 01:32:59;;;;;;;;;22.00;16.75;;;;;12.35;91.76;101144.53;146611;586;46020;-77
2022/12/09 01:35:56;;;;;;;;;15.00;13.25;;;;;12.35;91.64;101147.12;146608;581;46016;-77
2022/12/09 01:38:52;;;;;;;;;17.00;15.50;;;;;12.34;91.53;101141.06;146613;591;46020;-73
2022/12/09 01:41:44;;;;;;;;;17.25;15.00;;;;;12.34;91.57;101134.97;146610;596;46016;-73
2022/12/09 01:45:22;;;;;;;;;17.00;12.75;;;;;9.13;90.56;100585.47;146612;564;46021;-75
2022/12/09 01:48:25;;;;;;;;;21.00;14.00;;;;;12.28;90.99;101145.06;146609;659;46016;-74
2022/12/09 01:51:34;;;;;;;;;20.00;19.25;;;;;12.28;91.20;101140.75;146615;577;46010;-74
2022/12/09 01:54:35;;;;;;;;;25.50;21.75;;;;;12.30;91.00;101136.50;146611;652;46012;-74
2022/12/09 01:57:34;;;;;;;;;17.00;15.25;;;;;12.25;90.55;101135.37;146611;654;46020;-74
2022/12/09 02:00:44;;;;;;;;;14.00;14.00;;;;;12.20;90.17;101131.66;146605;669;46017;-73
2022/12/09 02:03:47;;;;;;;;;18.50;16.25;;;;;12.18;90.56;101131.59;146613;618;46010;-74
2022/12/09 02:06:51;;;;;;;;;19.25;14.25;;;;;12.19;90.68;101142.88;146613;582;46013;-74
2022/12/09 02:09:46;;;;;;;;;13.75;13.00;;;;;12.13;89.91;101134.75;146615;714;46010;-74
2022/12/09 02:12:54;;;;;;;;;15.50;13.75;;;;;12.06;89.95;101135.25;146606;588;46916;-73
2022/12/09 02:16:07;;;;;;;;;14.75;12.75;;;;;11.96;89.93;101136.47;146606;616;46010;-74
2022/12/09 02:20:00;;;;;;;;;27.50;19.25;;;;;8.75;89.87;100590.31;146602;563;46918;-73
2022/12/09 02:23:39;;;;;;;;;14.00;12.00;;;;;8.83;90.39;100598.47;146599;595;46021;-77
2022/12/09 02:26:57;;;;;;;;;14.50;10.75;;;;;11.86;90.93;101136.81;146603;676;46016;-75
2022/12/09 02:30:33;;;;;;;;;12.50;11.75;;;;;11.82;90.39;101142.63;146605;620;46021;-71
2022/12/09 02:34:28;;;;;;;;;13.50;12.00;;;;;8.68;90.13;100602.78;146605;602;46016;-72
2022/12/09 02:38:04;;;;;;;;;12.50;11.00;;;;;11.78;91.13;101144.19;146609;665;46020;-77
2022/12/09 02:41:21;;;;;;;;;10.75;10.00;;;;;11.77;91.15;101139.78;146606;578;46012;-74
2022/12/09 02:44:24;;;;;;;;;16.50;12.75;;;;;11.74;91.47;101134.41;146609;588;45021;-75
2022/12/09 02:47:30;;;;;;;;;16.75;14.00;;;;;11.72;91.54;101131.75;146604;590;46016;-80
2022/12/09 02:50:31;;;;;;;;;15.50;13.00;;;;;11.70;91.31;101122.97;146607;647;46021;-79
2022/12/09 02:53:32;;;;;;;;;14.75;14.00;;;;;11.72;91.50;101123.97;146604;589;47012;-80
2022/12/09 02:56:33;;;;;;;;;17.50;13.75;;;;;11.72;91.65;101123.06;146607;612;46012;-81
2022/12/09 02:59:25;;;;;;;;;16.25;12.75;;;;;11.71;92.22;101123.84;146608;666;46012;-79
2022/12/09 03:02:40;;;;;;;;;15.75;12.00;;;;;11.69;91.63;101121.19;146606;603;46012;-79
2022/12/09 03:06:09;;;;;;;;;17.50;14.50;;;;;8.62;91.31;100574.00;146604;566;46016;-79
2022/12/09 03:09:26;;;;;;;;;14.00;12.25;;;;;11.75;91.95;101115.44;146608;594;46012;-80
2022/12/09 03:12:47;;;;;;;;;15.25;14.50;;;;;11.78;91.57;101118.19;146602;633;46016;-78
2022/12/09 03:15:56;;;;;;;;;14.75;13.50;;;;;11.78;91.77;101110.41;146607;569;46020;-78
2022/12/09 03:19:13;;;;;;;;;15.75;14.75;;;;;11.80;91.88;101108.75;146604;614;46016;-79
2022/12/09 03:22:30;;;;;;;;;19.50;15.50;;;;;11.78;91.57;101110.41;146604;593;46021;-78
2022/12/09 03:25:38;;;;;;;;;19.50;17.75;;;;;11.77;91.79;101117.31;146606;613;46012;-79
2022/12/09 03:28:44;;;;;;;;;22.25;17.25;;;;;11.77;91.27;101130.31;146603;577;46012;-79
2022/12/09 03:31:43;;;;;;;;;18.00;16.00;;;;;11.79;91.49;101128.66;146604;627;46016;-79
2022/12/09 03:35:03;;;;;;;;;17.25;15.00;;;;;11.78;91.75;101132.06;146607;572;46010;-79
2022/12/09 03:38:22;;;;;;;;;19.75;16.75;;;;;11.77;90.91;101144.97;146605;590;46016;-79
2022/12/09 03:41:31;;;;;;;;;21.75;18.00;;;;;11.77;90.73;101153.69;146606;603;46020;-79
2022/12/09 03:44:55;;;;;;;;;38.75;30.50;;;;;8.91;90.61;100655.78;146604;576;46916;-78
2022/12/09 03:47:51;;;;;;;;;32.75;26.50;;;;;11.74;90.31;101161.31;146608;580;46020;-81
2022/12/09 03:51:15;;;;;;;;;25.25;22.00;;;;;8.69;89.88;100641.66;146604;615;46016;-79
2022/12/09 03:54:25;;;;;;;;;24.50;23.25;;;;;11.55;90.51;101145.53;146608;624;46020;-81
2022/12/09 03:57:28;;;;;;;;;22.25;17.00;;;;;11.68;90.85;101163.59;146602;620;46035;-81
2022/12/09 04:00:30;;;;;;;;;26.75;20.00;;;;;11.69;91.08;101169.66;146606;588;45582;-81
2022/12/09 04:03:42;;;;;;;;;22.25;17.25;;;;;11.65;90.44;101158.22;146600;646;46016;-81
2022/12/09 04:06:54;;;;;;;;;22.50;19.50;;;;;11.55;90.15;101159.41;146606;613;46021;-81
2022/12/09 04:09:53;;;;;;;;;25.25;18.25;;;;;11.49;90.18;101166.84;146604;593;46025;-79
2022/12/09 04:12:57;;;;;;;;;20.25;17.50;;;;;11.44;90.32;101170.03;146606;606;46020;-75
2022/12/09 04:15:52;;;;;;;;;19.00;17.00;;;;;11.42;90.47;101172.53;146606;654;46012;-76
2022/12/09 04:18:47;;;;;;;;;26.75;19.50;;;;;11.43;90.78;101173.41;146606;588;46028;-76
2022/12/09 04:21:39;;;;;;;;;18.00;14.75;;;;;11.44;90.85;101172.63;146597;622;47914;-78
2022/12/09 04:24:33;;;;;;;;;24.25;18.50;;;;;11.42;90.31;101175.13;146606;614;46020;-77
2022/12/09 04:27:26;;;;;;;;;18.75;17.00;;;;;11.39;90.13;101161.09;146600;572;46918;-76
2022/12/09 04:30:26;;;;;;;;;20.25;17.00;;;;;11.35;90.08;101164.34;146605;583;46020;-76
2022/12/09 04:33:26;;;;;;;;;16.75;14.25;;;;;11.26;90.35;101162.13;146597;564;47917;-80
2022/12/09 04:36:22;;;;;;;;;16.50;14.75;;;;;11.23;90.67;101151.56;146607;591;47020;-74
2022/12/09 04:39:18;;;;;;;;;28.00;22.00;;;;;11.19;90.75;101153.09;146601;596;46918;-74
2022/12/09 04:42:25;;;;;;;;;15.00;13.75;;;;;11.19;91.14;101150.50;146606;581;46020;-74
2022/12/09 04:45:20;;;;;;;;;13.50;11.00;;;;;11.20;91.08;101148.81;146604;598;47014;-78
2022/12/09 04:48:24;;;;;;;;;17.00;13.75;;;;;11.22;91.15;101149.78;146606;613;46020;-77
2022/12/09 04:51:23;;;;;;;;;13.25;11.00;;;;;11.26;91.35;101160.41;146602;578;46014;-78
2022/12/09 04:54:28;;;;;;;;;14.75;13.00;;;;;11.31;91.74;101160.69;146605;663;46020;-79
2022/12/09 04:57:25;;;;;;;;;20.75;15.50;;;;;11.33;91.57;101166.84;146601;586;46017;-80
2022/12/09 05:00:24;;;;;;;;;19.75;17.25;;;;;11.35;91.50;101164.34;146606;594;46012;-81
2022/12/09 05:03:28;;;;;;;;;14.75;12.75;;;;;11.29;90.92;101160.59;146604;741;46012;-82
2022/12/09 05:06:32;;;;;;;;;18.75;14.25;;;;;11.29;90.89;101164.88;146606;573;46021;-81
2022/12/09 05:09:24;;;;;;;;;20.75;16.50;;;;;11.31;91.39;101160.69;146603;612;46012;-80
2022/12/09 05:12:18;;;;;;;;;19.25;17.00;;;;;11.31;91.16;101164.16;146607;569;46011;-80
2022/12/09 05:15:23;;;;;;;;;14.50;13.25;;;;;11.36;91.25;101179.09;146610;618;46012;-82
2022/12/09 05:18:29;;;;;;;;;;;;;;;;;;;;;
2022/12/09 05:21:28;;;;;;;;;44.00;34.50;;;;;11.33;90.85;101165.13;146609;566;46017;-77
2022/12/09 05:24:33;;;;;;;;;33.25;28.00;;;;;11.29;90.63;101173.56;146612;584;46020;-78
2022/12/09 05:27:46;;;;;;;;;40.00;33.00;;;;;8.32;90.79;100654.09;146610;670;46012;-75
2022/12/09 05:30:40;;;;;;;;;30.50;25.00;;;;;11.26;91.01;101173.41;146613;585;46010;-75
2022/12/09 05:33:55;;;;;;;;;32.25;29.75;;;;;11.29;90.86;101186.53;146604;566;46032;-75
2022/12/09 05:36:47;;;;;;;;;21.50;20.00;;;;;11.30;91.28;101183.13;146617;577;46010;-75
2022/12/09 05:39:46;;;;;;;;;20.25;17.75;;;;;11.30;90.77;101188.31;146611;574;46016;-76
2022/12/09 05:42:41;;;;;;;;;23.75;21.50;;;;;11.29;91.06;101186.53;146613;585;46021;-73
2022/12/09 05:45:36;;;;;;;;;26.00;22.75;;;;;11.30;91.00;101183.13;146613;599;46014;-74
2022/12/09 05:48:29;;;;;;;;;22.25;20.00;;;;;11.33;91.50;101188.50;146613;569;46010;-76
2022/12/09 05:51:45;;;;;;;;;21.25;20.25;;;;;8.61;90.38;100711.81;146609;583;46016;-80
2022/12/09 05:54:41;;;;;;;;;21.25;20.00;;;;;11.35;91.07;101190.31;146615;570;45020;-79
2022/12/09 05:58:01;;;;;;;;;22.75;19.00;;;;;8.66;90.64;100718.13;146609;650;46016;-79
2022/12/09 06:00:56;;;;;;;;;18.75;17.00;;;;;11.39;91.44;101200.94;146611;600;46020;-75
2022/12/09 06:03:54;;;;;;;;;18.75;15.75;;;;;11.44;92.04;101196.00;146612;670;46013;-75
2022/12/09 06:06:54;;;;;;;;;15.00;12.75;;;;;11.48;91.94;101204.03;146613;634;46021;-74
2022/12/09 06:10:00;;;;;;;;;25.75;20.25;;;;;11.52;92.02;101216.37;146610;569;46012;-74
2022/12/09 06:13:15;;;;;;;;;25.25;20.25;;;;;8.75;92.07;100711.81;146614;585;46021;-76
2022/12/09 06:16:17;;;;;;;;;19.00;17.25;;;;;11.72;92.77;101211.41;146608;573;46016;-77
2022/12/09 06:19:21;;;;;;;;;26.75;22.25;;;;;11.83;92.52;101212.84;146612;598;46021;-77
2022/12/09 06:22:23;;;;;;;;;25.50;22.00;;;;;11.93;92.86;101220.37;146612;565;46012;-78
2022/12/09 06:25:21;;;;;;;;;31.25;26.75;;;;;12.07;92.78;101221.09;146616;605;46010;-79
2022/12/09 06:28:31;;;;;;;;;58.00;45.75;;;;;9.28;92.09;100712.19;146609;583;46017;-79
2022/12/09 06:31:23;;;;;;;;;45.00;33.00;;;;;12.30;93.01;101222.31;146614;629;46020;-77
2022/12/09 06:34:16;;;;;;;;;41.75;32.25;;;;;12.36;92.96;101195.72;146611;636;45017;-81
2022/12/09 06:37:11;;;;;;;;;27.25;24.25;;;;;12.76;93.69;101218.56;146616;572;45917;-79
2022/12/09 06:40:23;;;;;;;;;31.00;29.00;;;;;13.08;94.59;101223.69;146613;654;45016;-78
2022/12/09 06:43:26;;;;;;;;;32.00;28.00;;;;;10.76;94.36;100740.00;146612;630;46020;-76
2022/12/09 06:46:33;;;;;;;;;28.25;25.75;;;;;13.83;94.37;101227.28;146608;604;46016;-78
2022/12/09 06:49:37;;;;;;;;;35.00;28.25;;;;;14.09;92.51;101228.44;146614;577;46010;-77
2022/12/09 06:52:55;;;;;;;;;;;;;;;;;;;;;
2022/12/09 06:55:49;;;;;;;;;40.00;33.50;;;;;14.41;88.86;101225.47;146615;630;46010;-76
2022/12/09 06:58:55;;;;;;;;;41.00;31.75;;;;;14.53;88.77;101228.66;146609;591;46016;-77
2022/12/09 07:02:02;;;;;;;;;48.00;37.00;;;;;14.68;88.31;101237.13;146610;593;46020;-81
2022/12/09 07:05:01;;;;;;;;;43.00;34.75;;;;;14.85;87.23;101237.84;146611;565;46916;-80
2022/12/09 07:08:01;;;;;;;;;34.25;29.50;;;;;15.06;87.00;101240.47;146611;613;46020;-83
2022/12/09 07:10:54;;;;;;;;;37.00;31.75;;;;;15.24;86.04;101240.31;146609;574;46017;-81
2022/12/09 07:13:48;;;;;;;;;38.75;31.50;;;;;15.20;85.43;101207.97;146609;621;46020;-81
2022/12/09 07:16:51;;;;;;;;;32.00;28.00;;;;;15.69;83.51;101254.34;146603;672;46014;-80
2022/12/09 07:19:45;;;;;;;;;30.25;27.75;;;;;15.85;83.10;101244.47;146606;634;46020;-81
2022/12/09 07:22:39;;;;;;;;;33.00;29.00;;;;;16.00;82.65;101244.16;146605;615;46012;-81
2022/12/09 07:25:38;;;;;;;;;33.00;30.00;;;;;16.10;82.10;101248.91;146607;621;46020;-80
2022/12/09 07:28:34;;;;;;;;;37.25;30.25;;;;;16.26;81.27;101243.41;146602;569;46016;-81
2022/12/09 07:31:48;;;;;;;;;;;;;;;;;;;;;
2022/12/09 07:34:44;;;;;;;;;32.50;29.75;;;;;16.53;79.17;101240.00;146607;641;46012;-82
2022/12/09 07:37:54;;;;;;;;;36.00;31.00;;;;;16.60;79.09;101258.59;146604;591;46010;-81
2022/12/09 07:40:55;;;;;;;;;41.25;32.00;;;;;16.75;79.65;101231.16;146603;623;46016;-80
2022/12/09 07:43:52;;;;;;;;;48.25;37.50;;;;;17.00;79.33;101220.69;146606;570;46020;-80
2022/12/09 07:46:48;;;;;;;;;43.50;35.50;;;;;17.28;78.24;101230.34;146603;566;46016;-81
2022/12/09 07:49:43;;;;;;;;;45.00;36.25;;;;;17.50;76.07;101226.66;146605;571;46021;-80
2022/12/09 07:52:35;;;;;;;;;46.75;38.25;;;;;17.58;76.71;101226.91;146604;565;46016;-81
2022/12/09 07:55:43;;;;;;;;;48.75;38.00;;;;;17.62;77.53;101222.63;146606;615;46021;-78
2022/12/09 07:58:53;;;;;;;;;;;;;;;;;;;;;
2022/12/09 08:01:54;;;;;;;;;51.25;39.50;;;;;17.67;77.04;101239.41;146606;596;45020;-83
2022/12/09 08:04:59;;;;;;;;;47.50;39.00;;;;;17.71;76.51;101236.91;146600;586;46014;-82
2022/12/09 08:07:51;;;;;;;;;53.00;40.25;;;;;17.76;76.27;101231.81;146607;581;46028;-81
2022/12/09 08:10:53;;;;;;;;;46.50;38.00;;;;;17.81;76.08;101232.88;146605;565;46016;-82
2022/12/09 08:13:55;;;;;;;;;45.75;36.00;;;;;17.85;76.61;101237.37;146612;600;46010;-81
2022/12/09 08:16:59;;;;;;;;;45.25;36.00;;;;;17.93;76.73;101230.59;146603;594;46016;-82
2022/12/09 08:19:56;;;;;;;;;54.25;41.50;;;;;18.10;76.01;101231.13;146607;591;46010;-82
2022/12/09 08:22:52;;;;;;;;;45.00;37.00;;;;;18.16;76.44;101231.28;146606;792;46016;-81
2022/12/09 08:25:55;;;;;;;;;50.50;42.50;;;;;18.28;74.83;101220.22;146606;737;46010;-82
2022/12/09 08:29:00;;;;;;;;;52.50;41.75;;;;;18.35;75.86;101230.06;146606;573;46014;-81
2022/12/09 08:31:57;;;;;;;;;51.00;40.00;;;;;18.36;75.94;101231.84;146606;613;46020;-82
2022/12/09 08:34:55;;;;;;;;;30.00;26.50;;;;;18.40;73.24;101227.56;146603;580;46016;-81
2022/12/09 08:37:48;;;;;;;;;37.50;32.00;;;;;18.35;74.74;101226.53;146607;638;46020;-82
2022/12/09 08:40:48;;;;;;;;;25.75;22.25;;;;;18.30;74.69;101213.28;146607;582;46014;-78
2022/12/09 08:43:44;;;;;;;;;14.25;13.25;;;;;18.23;73.01;101219.22;146607;703;46010;-81
2022/12/09 08:46:43;;;;;;;;;14.75;10.25;;;;;18.23;75.50;101230.59;146604;686;46013;-82
2022/12/09 08:49:41;;;;;;;;;17.00;13.25;;;;;18.26;74.75;101221.94;146608;615;46020;-82
2022/12/09 08:52:34;;;;;;;;;14.25;12.00;;;;;18.32;73.03;101208.97;146603;587;47012;-80
2022/12/09 08:55:39;;;;;;;;;12.00;11.25;;;;;18.43;73.80;101204.00;146610;569;46010;-83
2022/12/09 08:58:36;;;;;;;;;13.25;9.75;;;;;18.45;72.63;101190.06;146604;604;46012;-81
2022/12/09 09:01:35;;;;;;;;;17.00;13.75;;;;;18.54;72.45;101199.94;146605;599;46020;-79
2022/12/09 09:04:40;;;;;;;;;12.00;8.50;;;;;18.61;73.26;101188.72;146603;658;46014;-82
2022/12/09 09:07:43;;;;;;;;;12.25;10.00;;;;;18.70;73.95;101198.59;146606;586;46020;-81
2022/12/09 09:10:41;;;;;;;;;14.50;11.75;;;;;18.80;74.59;101192.75;146604;655;46013;-82
2022/12/09 09:13:58;;;;;;;;;16.25;12.50;;;;;18.92;74.26;101193.06;146608;596;46010;-81
2022/12/09 09:16:56;;;;;;;;;8.50;8.50;;;;;19.04;73.07;101188.97;146612;652;46016;-81
2022/12/09 09:20:06;;;;;;;;;;;;;;;;;;;;;
2022/12/09 09:23:13;;;;;;;;;15.00;13.50;;;;;19.21;74.58;101213.00;146614;601;46012;-80
2022/12/09 09:26:24;;;;;;;;;10.00;9.00;;;;;19.20;71.84;101174.44;146617;603;46020;-82
2022/12/09 09:29:23;;;;;;;;;11.00;10.25;;;;;19.15;72.15;101176.94;146611;704;45030;-81
2022/12/09 09:32:31;;;;;;;;;;;;;;;;;;;;;
2022/12/09 09:35:27;;;;;;;;;11.75;11.50;;;;;19.11;73.06;101168.09;146611;585;46021;-81
2022/12/09 09:38:27;;;;;;;;;15.75;11.25;;;;;19.09;73.91;101151.41;146613;575;46020;-81
2022/12/09 09:42:01;;;;;;;;;;;;;;;;;;;;;
2022/12/09 09:45:01;;;;;;;;;10.00;7.00;;;;;19.10;72.85;101154.94;146613;572;47012;-82
2022/12/09 09:48:17;;;;;;;;;12.00;9.00;;;;;19.15;72.59;101156.78;146613;606;46016;-81
2022/12/09 09:51:36;;;;;;;;;10.67;8.00;;;;;17.76;74.64;100888.22;146614;569;46020;-79
2022/12/09 09:54:36;;;;;;;;;8.33;6.33;;;;;19.27;70.15;101144.78;146610;641;46016;-80
2022/12/09 09:57:53;;;;;;;;;9.00;7.33;;;;;19.23;72.05;101143.84;146614;598;46020;-82
2022/12/09 10:01:16;;;;;;;;;7.00;7.00;;;;;19.30;72.03;101139.59;146614;592;46012;-83
2022/12/09 10:04:37;;;;;;;;;10.00;9.00;;;;;19.44;72.41;101132.00;146615;573;46012;-81
2022/12/09 10:07:53;;;;;;;;;8.00;6.67;;;;;19.53;68.02;101140.09;146610;592;46021;-81
2022/12/09 10:11:41;;;;;;;;;8.33;7.00;;;;;19.57;69.87;101131.44;146616;600;46021;-76
2022/12/09 10:15:03;;;;;;;;;8.00;8.00;;;;;19.59;71.62;101141.13;146612;571;46012;-76
2022/12/09 10:18:36;;;;;;;;;9.67;5.33;;;;;19.62;66.38;101141.22;146630;624;45021;-77
2022/12/09 10:22:17;;;;;;;;;10.00;8.67;;;;;17.45;72.01;100727.56;146627;608;45912;-76
2022/12/09 10:25:33;;;;;;;;;7.67;6.00;;;;;19.96;70.23;101114.69;146631;582;45010;-76
2022/12/09 10:28:43;;;;;;;;;10.33;8.00;;;;;20.06;66.15;101111.37;146627;567;45026;-77
2022/12/09 10:31:39;;;;;;;;;11.50;10.25;;;;;20.01;64.55;101090.25;146631;653;45010;-76
2022/12/09 10:34:46;;;;;;;;;8.33;7.33;;;;;17.55;64.98;100668.34;146629;645;45012;-73
2022/12/09 10:37:52;;;;;;;;;5.33;5.33;;;;;20.07;64.54;101100.88;146629;594;45020;-77
2022/12/09 10:41:12;;;;;;;;;6.33;6.33;;;;;20.10;67.19;101093.91;146622;628;45916;-75
2022/12/09 10:44:28;;;;;;;;;14.75;13.00;;;;;20.13;69.41;101086.06;146631;654;45010;-75
2022/12/09 10:47:52;;;;;;;;;;;;;;;;;;;;;
2022/12/09 10:50:45;;;;;;;;;10.00;7.67;;;;;20.19;66.42;101086.19;146629;592;45020;-76
2022/12/09 10:54:04;;;;;;;;;6.67;6.67;;;;;20.16;69.10;101081.75;146627;651;45014;-76
2022/12/09 10:57:43;;;;;;;;;10.00;7.33;;;;;20.18;68.74;101077.37;146630;631;45010;-76
2022/12/09 11:00:35;;;;;;;;;8.00;6.00;;;;;20.18;64.84;101076.47;146628;586;46013;-75
2022/12/09 11:03:40;;;;;;;;;10.67;8.00;;;;;20.15;66.41;101066.78;146631;570;45010;-75
2022/12/09 11:06:56;;;;;;;;;8.00;5.33;;;;;20.16;65.93;101071.22;146626;668;45016;-73
2022/12/09 11:10:32;;;;;;;;;6.67;4.00;;;;;20.17;65.66;101065.06;146629;667;45012;-74
2022/12/09 11:13:44;;;;;;;;;8.00;5.67;;;;;20.21;66.38;101056.34;146631;586;45030;-77
2022/12/09 11:16:50;;;;;;;;;9.33;8.00;;;;;20.25;66.25;101046.78;146621;672;46021;-75
2022/12/09 11:19:43;;;;;;;;;11.00;9.00;;;;;20.31;65.79;101046.84;146611;576;46014;-74
2022/12/09 11:22:48;;;;;;;;;10.33;7.00;;;;;20.37;67.96;101036.44;146615;565;47011;-74
2022/12/09 11:25:42;;;;;;;;;8.33;6.00;;;;;20.43;61.67;101011.94;146609;565;46016;-76
2022/12/09 11:28:47;;;;;;;;;6.00;5.00;;;;;20.37;64.29;101007.47;146611;628;47010;-75
2022/12/09 11:31:51;;;;;;;;;6.00;6.00;;;;;20.22;61.00;101016.03;146612;642;46012;-74
2022/12/09 11:34:51;;;;;;;;;4.67;4.33;;;;;19.98;61.37;101010.34;146614;569;47012;-73
2022/12/09 11:37:48;;;;;;;;;4.00;4.00;;;;;19.70;60.89;101015.09;146612;636;46017;-75
2022/12/09 11:40:41;;;;;;;;;9.67;7.33;;;;;19.62;64.28;101022.84;146614;600;46010;-76
2022/12/09 11:44:02;;;;;;;;;7.67;5.67;;;;;19.69;64.21;101036.09;146611;602;46016;-74
2022/12/09 11:47:24;;;;;;;;;8.00;6.33;;;;;19.67;69.15;101036.09;146615;611;46020;-75
2022/12/09 11:50:41;;;;;;;;;10.00;6.00;;;;;17.31;68.20;100652.94;146613;612;46025;-75
2022/12/09 11:53:43;;;;;;;;;8.67;6.67;;;;;19.40;63.99;101033.75;146615;569;46020;-76
2022/12/09 11:56:49;;;;;;;;;8.00;6.67;;;;;19.33;68.77;101024.88;146612;565;46014;-75
2022/12/09 12:00:07;;;;;;;;;9.00;6.33;;;;;16.77;68.18;100565.28;146617;603;46020;-77
2022/12/09 12:03:46;;;;;;;;;10.67;8.33;;;;;16.91;65.78;100562.09;146611;598;46913;-75
2022/12/09 12:07:05;;;;;;;;;6.00;5.00;;;;;19.38;65.16;101015.34;146612;593;46020;-75
2022/12/09 12:10:03;;;;;;;;;7.00;7.00;;;;;19.29;63.64;101006.37;146613;684;46012;-76
2022/12/09 12:13:40;;;;;;;;;10.50;6.50;;;;;16.35;62.53;100491.81;146612;575;47012;-74
2022/12/09 12:17:06;;;;;;;;;6.33;4.67;;;;;19.28;62.57;100992.34;146609;588;46017;-76
2022/12/09 12:20:19;;;;;;;;;5.67;5.00;;;;;19.34;63.63;100989.81;146607;580;46020;-76
2022/12/09 12:23:55;;;;;;;;;9.00;7.33;;;;;19.48;65.23;100976.06;146603;631;46017;-74
2022/12/09 12:27:16;;;;;;;;;14.00;7.33;;;;;19.51;63.61;100987.53;146608;571;46029;-77
2022/12/09 12:30:44;;;;;;;;;7.33;5.67;;;;;16.74;65.87;100520.66;146604;581;46017;-76
2022/12/09 12:34:13;;;;;;;;;10.67;8.67;;;;;19.36;64.94;100982.84;146609;598;46010;-74
2022/12/09 12:38:05;;;;;;;;;11.33;9.00;;;;;19.22;63.42;100986.06;146604;612;46016;-77
2022/12/09 12:41:54;;;;;;;;;9.00;5.33;;;;;16.66;62.04;100555.34;146608;620;46012;-75
2022/12/09 12:49:06;;;;;;;;;7.33;6.33;;;;;19.42;66.87;100991.72;146609;589;46010;-77
2022/12/09 12:52:48;;;;;;;;;19.50;16.25;;;;;19.57;64.43;100998.16;146604;641;46013;-77
2022/12/09 12:56:21;;;;;;;;;13.67;9.00;;;;;17.49;65.76;100632.38;146607;660;46010;-77
2022/12/09 12:59:51;;;;;;;;;7.00;6.67;;;;;19.60;62.77;101002.59;146607;576;46018;-78
2022/12/09 13:03:19;;;;;;;;;8.33;6.33;;;;;19.49;62.83;100988.34;146608;565;46020;-79
2022/12/09 13:06:20;;;;;;;;;7.00;5.33;;;;;19.38;63.94;100999.56;146606;574;46012;-76
2022/12/09 13:09:39;;;;;;;;;8.33;7.00;;;;;19.33;64.66;101000.31;146608;569;46021;-77
2022/12/09 13:13:00;;;;;;;;;7.00;6.00;;;;;16.68;66.89;100544.06;146607;565;46025;-75
2022/12/09 13:16:01;;;;;;;;;8.67;5.67;;;;;19.21;63.42;100984.31;146608;597;46021;-76
2022/12/09 13:19:28;;;;;;;;;6.67;6.00;;;;;19.19;66.04;100986.91;146613;598;46016;-77
2022/12/09 13:22:39;;;;;;;;;9.00;6.67;;;;;19.13;64.40;100984.16;146615;558;46021;-78
2022/12/09 13:26:17;;;;;;;;;6.00;6.00;;;;;16.88;65.65;100598.66;146610;580;46016;-78
2022/12/09 13:29:47;;;;;;;;;10.33;7.00;;;;;16.40;65.71;100513.75;146613;627;46021;-77
2022/12/09 13:33:15;;;;;;;;;9.67;6.33;;;;;19.07;66.48;100978.78;146611;584;46016;-75
2022/12/09 13:36:34;;;;;;;;;10.00;7.00;;;;;19.13;63.47;100971.00;146616;667;46010;-76
2022/12/09 13:40:08;;;;;;;;;5.00;5.00;;;;;17.73;63.13;100692.34;146614;596;46035;-77
2022/12/09 13:43:32;;;;;;;;;7.00;6.00;;;;;17.34;65.04;100587.50;146613;621;46028;-75
2022/12/09 13:46:44;;;;;;;;;6.33;5.00;;;;;19.69;61.29;100965.06;146611;623;46016;-75
2022/12/09 13:49:46;;;;;;;;;9.33;8.00;;;;;19.66;63.07;100965.00;146615;626;46020;-77
2022/12/09 13:53:09;;;;;;;;;7.33;6.00;;;;;19.50;63.03;100972.63;146612;571;46016;-77
2022/12/09 13:56:31;;;;;;;;;8.67;6.00;;;;;17.03;62.83;100573.72;146612;628;46020;-79
2022/12/09 14:00:12;;;;;;;;;9.67;8.00;;;;;19.09;64.40;100966.53;146615;580;45042;-78
2022/12/09 14:03:45;;;;;;;;;13.00;7.67;;;;;16.26;65.10;100508.19;146616;563;46010;-78
2022/12/09 14:07:25;;;;;;;;;19.75;17.00;;;;;18.79;65.48;100972.06;146608;578;46013;-79
2022/12/09 14:10:49;;;;;;;;;11.33;9.33;;;;;18.70;65.26;100985.81;146615;578;46010;-78
2022/12/09 14:14:19;;;;;;;;;12.00;7.00;;;;;18.62;66.56;100984.75;146610;612;46016;-75
2022/12/09 14:18:08;;;;;;;;;10.67;8.33;;;;;16.01;67.08;100531.94;146619;653;45023;-78
2022/12/09 14:21:35;;;;;;;;;14.75;12.25;;;;;18.59;68.12;100989.94;146610;680;46012;-77
2022/12/09 14:24:35;;;;;;;;;21.75;19.00;;;;;18.58;67.92;100998.69;146614;613;46010;-79
2022/12/09 14:28:09;;;;;;;;;12.25;11.00;;;;;15.90;67.47;100536.88;146612;574;46012;-79
2022/12/09 14:31:20;;;;;;;;;;;;;;;;;;;;;
2022/12/09 14:34:35;;;;;;;;;22.25;17.00;;;;;18.50;68.04;100992.34;146609;594;46012;-80
2022/12/09 14:38:14;;;;;;;;;13.25;9.75;;;;;18.44;68.36;100985.22;146611;575;46020;-78
2022/12/09 14:41:27;;;;;;;;;15.50;12.00;;;;;18.39;68.75;100965.87;146610;683;46012;-77